Time;durP1;ratioP1;P1;durP2;ratioP2;P2;SDS_P1;SDS_P2;PMS_P1;PMS_P2;Temp;Humidity;BMP_temperature;BMP_pressure;BME280_temperature;BME280_humidity;BME280_pressure;Samples;Min_cycle;Max_cycle;Signal;HPM_P1;HPM_P2
2022/05/09 00:02:01;;;;;;;12.07;3.38;;;12.10;99.90;;;;;;5027736;28;20041;-59
2022/05/09 00:04:28;;;;;;;12.10;4.50;;;12.10;99.90;;;;;;5028368;28;20065;-61
2022/05/09 00:06:56;;;;;;;9.77;3.85;;;12.10;99.90;;;;;;5026883;28;20046;-60
2022/05/09 00:09:24;;;;;;;15.65;4.75;;;12.00;99.90;;;;;;5027617;28;20370;-59
2022/05/09 00:11:51;;;;;;;13.57;4.20;;;12.00;99.90;;;;;;5029393;28;20041;-62
2022/05/09 00:14:19;;;;;;;11.10;4.00;;;11.90;99.90;;;;;;5027152;28;20045;-62
2022/05/09 00:16:47;;;;;;;14.15;4.10;;;11.90;99.90;;;;;;5030088;28;20057;-60
2022/05/09 00:19:17;;;;;;;14.00;5.13;;;11.80;99.90;;;;;;5031528;28;20050;-60
2022/05/09 00:21:45;;;;;;;9.43;3.53;;;11.80;99.90;;;;;;5023866;28;20045;-59
2022/05/09 00:24:15;;;;;;;13.40;4.95;;;11.80;99.90;;;;;;5029202;28;20042;-60
2022/05/09 00:26:46;;;;;;;16.17;4.30;;;11.70;99.90;;;;;;5031329;28;20072;-60
2022/05/09 00:29:15;;;;;;;10.80;4.25;;;11.70;99.90;;;;;;5022003;28;20666;-60
2022/05/09 00:31:46;;;;;;;15.13;4.70;;;11.60;99.90;;;;;;5030651;28;20049;-59
2022/05/09 00:34:17;;;;;;;19.10;4.88;;;11.60;99.90;;;;;;5033028;28;20045;-60
2022/05/09 00:36:46;;;;;;;20.75;5.00;;;11.60;99.90;;;;;;5031265;28;20050;-59
2022/05/09 00:39:14;;;;;;;9.63;4.10;;;11.50;99.90;;;;;;5030992;28;20041;-59
2022/05/09 00:41:43;;;;;;;12.15;4.25;;;11.50;99.90;;;;;;5031312;28;20060;-59
2022/05/09 00:44:11;;;;;;;12.13;4.57;;;11.40;99.90;;;;;;5027487;28;20260;-59
2022/05/09 00:46:42;;;;;;;11.23;4.30;;;11.40;99.90;;;;;;5031556;28;20138;-60
2022/05/09 00:49:23;;;;;;;16.05;4.47;;;11.30;99.90;;;;;;5026269;28;20049;-59
2022/05/09 00:52:38;;;;;;;10.85;4.88;;;11.30;99.90;;;;;;5029150;28;20048;-59
2022/05/09 00:55:20;;;;;;;10.23;3.97;;;11.30;99.90;;;;;;5017939;28;20053;-58
2022/05/09 00:58:06;;;;;;;10.65;3.88;;;11.20;99.90;;;;;;5030008;28;20401;-59
2022/05/09 01:00:34;;;;;;;11.43;3.70;;;11.20;99.90;;;;;;5030228;28;20041;-59
2022/05/09 01:03:07;;;;;;;13.32;5.38;;;11.20;99.90;;;;;;5025426;28;20176;-60
2022/05/09 01:05:34;;;;;;;11.63;4.15;;;11.10;99.90;;;;;;5025138;28;20041;-60
2022/05/09 01:08:02;;;;;;;12.68;4.15;;;11.10;99.90;;;;;;5025293;28;20053;-59
2022/05/09 01:10:33;;;;;;;13.20;3.83;;;11.10;99.90;;;;;;5029191;28;20067;-59
2022/05/09 01:13:08;;;;;;;12.57;4.80;;;11.10;99.90;;;;;;5029847;28;20041;-58
2022/05/09 01:15:36;;;;;;;12.93;4.68;;;11.00;99.90;;;;;;5029217;28;20045;-59
2022/05/09 01:18:07;;;;;;;11.77;4.47;;;11.00;99.90;;;;;;5028084;28;20060;-58
2022/05/09 01:20:36;;;;;;;8.30;3.97;;;10.90;99.90;;;;;;5028839;28;20041;-60
2022/05/09 01:23:04;;;;;;;13.90;4.20;;;10.90;99.90;;;;;;5029720;28;20060;-58
2022/05/09 01:25:32;;;;;;;14.10;4.50;;;10.90;99.90;;;;;;5029245;28;20060;-59
2022/05/09 01:28:01;;;;;;;13.48;5.25;;;10.80;99.90;;;;;;5028799;28;20037;-61
2022/05/09 01:30:52;;;;;;;13.18;4.32;;;10.80;99.90;;;;;;5027875;28;20045;-59
2022/05/09 01:33:35;;;;;;;9.55;4.53;;;10.80;99.90;;;;;;5031269;28;20041;-59
2022/05/09 01:36:12;;;;;;;11.75;5.15;;;10.80;99.90;;;;;;5023928;28;20493;-59
2022/05/09 01:38:48;;;;;;;12.80;4.82;;;10.70;99.90;;;;;;5031214;28;20049;-59
2022/05/09 01:41:16;;;;;;;11.23;4.38;;;10.70;99.90;;;;;;5015464;28;20042;-65
2022/05/09 01:43:49;;;;;;;11.30;4.53;;;10.70;99.90;;;;;;5030614;28;20053;-65
2022/05/09 01:46:19;;;;;;;14.23;5.03;;;10.60;99.90;;;;;;5030245;28;20402;-64
2022/05/09 01:51:36;;;;;;;13.75;4.63;;;10.50;99.90;;;;;;5030937;28;20049;-64
2022/05/09 01:54:04;;;;;;;13.40;4.22;;;10.50;99.90;;;;;;5031320;28;20042;-64
2022/05/09 01:56:34;;;;;;;10.73;4.22;;;10.40;99.90;;;;;;5031309;28;20057;-65
2022/05/09 01:59:04;;;;;;;13.43;4.93;;;10.40;99.90;;;;;;5029577;28;20046;-64
2022/05/09 02:01:38;;;;;;;10.68;4.82;;;10.40;99.90;;;;;;5031411;28;20060;-63
2022/05/09 02:04:07;;;;;;;14.00;4.47;;;10.30;99.90;;;;;;5031141;28;20440;-64
2022/05/09 02:06:34;;;;;;;13.55;5.10;;;10.30;99.90;;;;;;5030640;28;20056;-60
2022/05/09 02:09:08;;;;;;;11.65;4.88;;;10.30;99.90;;;;;;5028721;28;20437;-58
2022/05/09 02:11:36;;;;;;;14.80;4.78;;;10.20;99.90;;;;;;5031769;28;20045;-61
2022/05/09 02:14:03;;;;;;;17.85;5.72;;;10.20;99.90;;;;;;5027171;28;20057;-60
2022/05/09 02:16:31;;;;;;;13.77;4.65;;;10.20;99.90;;;;;;5029999;28;20049;-59
2022/05/09 02:18:59;;;;;;;13.45;5.00;;;10.10;99.90;;;;;;5031764;28;20083;-59
2022/05/09 02:21:26;;;;;;;13.18;5.15;;;10.10;99.90;;;;;;5032093;28;20049;-61
2022/05/09 02:23:54;;;;;;;18.77;5.28;;;10.10;99.90;;;;;;5030550;28;20049;-61
2022/05/09 02:26:22;;;;;;;10.68;4.75;;;10.10;99.90;;;;;;5030631;28;20065;-60
2022/05/09 02:28:49;;;;;;;12.07;5.88;;;10.10;99.90;;;;;;5031696;28;20393;-60
2022/05/09 02:31:20;;;;;;;16.52;5.57;;;10.00;99.90;;;;;;5029064;28;20053;-62
2022/05/09 02:33:48;;;;;;;13.07;4.82;;;10.00;99.90;;;;;;5029350;28;20042;-59
2022/05/09 02:36:16;;;;;;;22.05;5.93;;;10.00;99.90;;;;;;5031623;28;20049;-61
2022/05/09 02:38:44;;;;;;;12.38;5.03;;;10.00;99.90;;;;;;5031860;28;20037;-60
2022/05/09 02:41:12;;;;;;;17.30;4.78;;;10.00;99.90;;;;;;5031561;28;20641;-59
2022/05/09 02:43:40;;;;;;;10.27;4.25;;;9.90;99.90;;;;;;5029494;28;20037;-60
2022/05/09 02:46:11;;;;;;;17.02;5.97;;;9.90;99.90;;;;;;5027235;28;20045;-64
2022/05/09 02:48:40;;;;;;;14.95;5.55;;;9.90;99.90;;;;;;5029699;28;20041;-59
2022/05/09 02:51:08;;;;;;;17.35;5.85;;;9.80;99.90;;;;;;5011607;28;20046;-61
2022/05/09 02:53:36;;;;;;;10.60;5.20;;;9.80;99.90;;;;;;5021051;28;20409;-59
2022/05/09 02:56:05;;;;;;;17.10;5.22;;;9.80;99.90;;;;;;5031421;28;20050;-61
2022/05/09 02:58:34;;;;;;;13.65;5.03;;;9.80;99.90;;;;;;5029193;28;20068;-62
2022/05/09 03:01:02;;;;;;;9.43;4.82;;;9.80;99.90;;;;;;5029192;28;20048;-62
2022/05/09 03:06:17;;;;;;;12.10;4.70;;;9.70;99.90;;;;;;5031215;28;20505;-62
2022/05/09 03:08:44;;;;;;;10.23;5.60;;;9.70;99.90;;;;;;5028579;28;20052;-60
2022/05/09 03:11:12;;;;;;;13.38;5.00;;;9.80;99.90;;;;;;5029798;28;20052;-62
2022/05/09 03:13:40;;;;;;;11.32;5.15;;;9.70;99.90;;;;;;5028329;28;20056;-61
2022/05/09 03:16:09;;;;;;;11.25;4.60;;;9.70;99.90;;;;;;5028794;28;20042;-62
2022/05/09 03:18:37;;;;;;;14.90;4.90;;;9.60;99.90;;;;;;5029729;28;20528;-62
2022/05/09 03:21:05;;;;;;;20.92;5.18;;;9.60;99.90;;;;;;5029393;28;20041;-60
2022/05/09 03:23:33;;;;;;;16.55;5.07;;;9.50;99.90;;;;;;5030459;28;20057;-61
2022/05/09 03:26:01;;;;;;;13.07;5.22;;;9.50;99.90;;;;;;5030066;28;20045;-61
2022/05/09 03:28:30;;;;;;;12.82;5.25;;;9.50;99.90;;;;;;5030101;28;20401;-61
2022/05/09 03:30:59;;;;;;;11.27;5.35;;;9.40;99.90;;;;;;5061525;28;20085;-62
2022/05/09 03:33:27;;;;;;;13.93;5.53;;;9.40;99.90;;;;;;5030943;28;20049;-61
2022/05/09 03:35:58;;;;;;;12.10;5.00;;;9.40;99.90;;;;;;5031204;28;20048;-60
2022/05/09 03:38:26;;;;;;;11.35;5.20;;;9.30;99.90;;;;;;5030012;28;20049;-62
2022/05/09 03:40:54;;;;;;;16.67;5.97;;;9.30;99.90;;;;;;5029919;28;20045;-61
2022/05/09 03:43:21;;;;;;;13.45;5.30;;;9.30;99.90;;;;;;5030865;28;20041;-63
2022/05/09 03:45:50;;;;;;;14.68;5.38;;;9.20;99.90;;;;;;5030083;28;20045;-62
2022/05/09 03:48:18;;;;;;;11.65;5.10;;;9.20;99.90;;;;;;5030991;28;20046;-62
2022/05/09 03:50:46;;;;;;;13.85;5.05;;;9.20;99.90;;;;;;5028170;28;20045;-63
2022/05/09 03:53:14;;;;;;;11.45;4.93;;;9.20;99.90;;;;;;5028832;28;20057;-64
2022/05/09 03:55:41;;;;;;;13.77;4.93;;;9.20;99.90;;;;;;5029967;28;20037;-64
2022/05/09 03:58:09;;;;;;;13.85;5.43;;;9.20;99.90;;;;;;5030797;28;20049;-66
2022/05/09 04:00:38;;;;;;;20.43;5.07;;;9.20;99.90;;;;;;5030120;28;20421;-65
2022/05/09 04:03:06;;;;;;;8.13;4.88;;;9.20;99.90;;;;;;5028492;28;20512;-64
2022/05/09 04:05:36;;;;;;;11.55;5.00;;;9.20;99.90;;;;;;5031438;28;20049;-61
2022/05/09 04:08:07;;;;;;;11.57;4.60;;;9.20;99.90;;;;;;5033751;28;20045;-65
2022/05/09 04:10:37;;;;;;;13.15;4.68;;;9.20;99.90;;;;;;5033615;28;20049;-62
2022/05/09 04:13:04;;;;;;;8.70;4.18;;;9.20;99.90;;;;;;5031721;28;20191;-62
2022/05/09 04:18:21;;;;;;;12.05;3.83;;;9.20;99.90;;;;;;5032443;28;20046;-66
2022/05/09 04:20:50;;;;;;;13.40;5.05;;;9.20;99.90;;;;;;5034055;28;20511;-64
2022/05/09 04:23:19;;;;;;;12.13;5.18;;;9.30;99.90;;;;;;5033947;28;20061;-64
2022/05/09 04:25:48;;;;;;;9.18;4.88;;;9.30;99.90;;;;;;5032120;28;20040;-67
2022/05/09 04:28:18;;;;;;;15.97;4.50;;;9.20;99.90;;;;;;5033239;28;20484;-67
2022/05/09 04:30:52;;;;;;;16.45;4.90;;;9.30;99.90;;;;;;5032932;28;20305;-67
2022/05/09 04:33:20;;;;;;;14.20;4.25;;;9.30;99.90;;;;;;5033988;28;20049;-66
2022/05/09 04:35:48;;;;;;;12.30;4.78;;;9.30;99.90;;;;;;5032733;28;20393;-64
2022/05/09 04:38:21;;;;;;;14.15;4.85;;;9.30;99.90;;;;;;5031129;28;20048;-62
2022/05/09 04:40:51;;;;;;;16.42;4.93;;;9.30;99.90;;;;;;5033813;28;20052;-64
2022/05/09 04:43:21;;;;;;;15.68;4.50;;;9.30;99.90;;;;;;5033768;28;20045;-62
2022/05/09 04:45:49;;;;;;;11.60;4.53;;;9.20;99.90;;;;;;5033514;28;20481;-60
2022/05/09 04:48:19;;;;;;;8.77;4.50;;;9.30;99.90;;;;;;5021949;28;20053;-63
2022/05/09 04:50:48;;;;;;;13.18;4.60;;;9.30;99.90;;;;;;5016850;28;20042;-60
2022/05/09 04:53:16;;;;;;;13.63;6.43;;;9.30;99.90;;;;;;5010327;28;20046;-61
2022/05/09 04:55:45;;;;;;;15.93;6.20;;;9.30;99.90;;;;;;5009214;28;20510;-63
2022/05/09 04:58:20;;;;;;;15.82;5.32;;;9.30;99.90;;;;;;5019527;28;20053;-62
2022/05/09 05:00:48;;;;;;;11.50;5.05;;;9.30;99.90;;;;;;5027540;28;20040;-63
2022/05/09 05:03:20;;;;;;;16.88;5.82;;;9.30;99.90;;;;;;5019163;28;20497;-63
2022/05/09 05:05:52;;;;;;;11.30;4.37;;;9.30;99.90;;;;;;5022958;28;20037;-61
2022/05/09 05:08:21;;;;;;;18.52;5.53;;;9.40;99.90;;;;;;5044361;28;20045;-64
2022/05/09 05:10:55;;;;;;;12.98;4.55;;;9.40;99.90;;;;;;5022631;28;20050;-63
2022/05/09 05:13:26;;;;;;;10.35;4.00;;;9.40;99.90;;;;;;5020656;28;20049;-61
2022/05/09 05:15:55;;;;;;;14.90;4.97;;;9.50;99.90;;;;;;5022347;28;20064;-64
2022/05/09 05:18:30;;;;;;;10.40;4.20;;;9.50;99.90;;;;;;5024215;28;20048;-61
2022/05/09 05:20:58;;;;;;;15.40;5.07;;;9.50;99.90;;;;;;5025971;28;20045;-61
2022/05/09 05:23:25;;;;;;;9.07;4.25;;;9.60;99.90;;;;;;5026640;28;20052;-61
2022/05/09 05:25:53;;;;;;;14.02;4.88;;;9.60;99.90;;;;;;5029266;28;20046;-60
2022/05/09 05:28:20;;;;;;;11.63;4.32;;;9.70;99.90;;;;;;5027712;28;20053;-61
2022/05/09 05:30:49;;;;;;;11.57;4.82;;;9.70;99.90;;;;;;5028206;28;20527;-62
2022/05/09 05:33:17;;;;;;;11.20;4.63;;;9.70;99.90;;;;;;5027666;28;20049;-61
2022/05/09 05:35:44;;;;;;;13.73;4.15;;;9.80;99.90;;;;;;5026736;28;20049;-64
2022/05/09 05:38:12;;;;;;;12.85;4.65;;;9.90;99.90;;;;;;5022049;28;20041;-62
2022/05/09 05:40:39;;;;;;;12.57;4.07;;;10.00;99.90;;;;;;5008231;28;20053;-67
2022/05/09 05:43:14;;;;;;;11.25;4.57;;;10.00;99.90;;;;;;5025066;28;20052;-63
2022/05/09 05:45:46;;;;;;;11.45;4.63;;;10.10;99.90;;;;;;5025341;28;20056;-62
2022/05/09 05:48:14;;;;;;;11.43;4.43;;;10.10;99.90;;;;;;5024744;28;20056;-61
2022/05/09 05:50:42;;;;;;;15.45;4.85;;;10.20;99.90;;;;;;5026153;28;20485;-62
2022/05/09 05:53:09;;;;;;;10.18;4.10;;;10.20;99.90;;;;;;5024158;28;20049;-58
2022/05/09 05:55:37;;;;;;;12.82;4.25;;;10.30;99.90;;;;;;5025656;28;20049;-61
2022/05/09 05:58:05;;;;;;;13.77;3.72;;;10.40;99.90;;;;;;5022342;28;20060;-63
2022/05/09 06:00:33;;;;;;;12.40;4.75;;;10.40;99.90;;;;;;5026159;28;20053;-65
2022/05/09 06:03:01;;;;;;;17.55;4.60;;;10.40;99.90;;;;;;5021593;28;20037;-61
2022/05/09 06:05:30;;;;;;;13.88;4.93;;;10.50;99.90;;;;;;5023760;28;20045;-60
2022/05/09 06:07:58;;;;;;;10.95;4.30;;;10.50;99.90;;;;;;5027297;28;20501;-63
2022/05/09 06:10:26;;;;;;;17.55;4.18;;;10.60;99.90;;;;;;5026301;28;20033;-62
2022/05/09 06:12:54;;;;;;;8.98;4.30;;;10.60;99.90;;;;;;5024291;28;20432;-61
2022/05/09 06:15:24;;;;;;;11.98;4.07;;;10.70;99.90;;;;;;5021782;28;20587;-60
2022/05/09 06:17:53;;;;;;;12.07;4.97;;;10.70;99.90;;;;;;5023252;28;20052;-65
2022/05/09 06:20:22;;;;;;;13.23;4.05;;;10.80;99.90;;;;;;5028417;28;20056;-63
2022/05/09 06:22:50;;;;;;;11.25;4.78;;;10.80;99.90;;;;;;5023626;28;20045;-64
2022/05/09 06:25:19;;;;;;;10.05;4.22;;;10.80;99.90;;;;;;5018232;28;20045;-65
2022/05/09 06:27:47;;;;;;;14.02;4.53;;;10.90;99.90;;;;;;5024964;28;20041;-64
2022/05/09 06:30:17;;;;;;;12.77;4.43;;;11.00;99.90;;;;;;5030947;28;20056;-64
2022/05/09 06:32:44;;;;;;;19.25;7.25;;;11.00;99.90;;;;;;5024985;28;20049;-65
2022/05/09 06:35:23;;;;;;;10.27;4.20;;;11.10;99.90;;;;;;5014542;28;20060;-62
2022/05/09 06:37:57;;;;;;;9.50;3.95;;;11.10;99.90;;;;;;5007612;28;20041;-64
2022/05/09 06:40:28;;;;;;;7.32;3.60;;;11.20;99.90;;;;;;5020756;28;20517;-60
2022/05/09 06:42:56;;;;;;;10.88;4.00;;;11.20;99.90;;;;;;5018769;28;20452;-61
2022/05/09 06:45:28;;;;;;;11.18;3.72;;;11.30;99.90;;;;;;5041519;28;20045;-60
2022/05/09 06:47:57;;;;;;;13.55;5.05;;;11.30;99.90;;;;;;5023710;28;20521;-59
2022/05/09 06:50:31;;;;;;;13.05;3.75;;;11.30;99.90;;;;;;5026588;28;20490;-60
2022/05/09 06:53:02;;;;;;;12.07;3.40;;;11.40;99.90;;;;;;5022407;28;20057;-59
2022/05/09 06:55:49;;;;;;;9.18;4.00;;;11.50;99.90;;;;;;5024987;28;20057;-61
2022/05/09 06:58:21;;;;;;;11.85;4.43;;;11.60;99.90;;;;;;5018917;28;20056;-60
2022/05/09 07:00:50;;;;;;;12.38;3.55;;;11.60;99.90;;;;;;5012098;28;20042;-59
2022/05/09 07:03:20;;;;;;;12.40;3.90;;;11.70;99.90;;;;;;5009773;28;20056;-59
2022/05/09 07:05:49;;;;;;;9.87;4.07;;;11.70;99.90;;;;;;5018441;28;20042;-60
2022/05/09 07:08:19;;;;;;;11.95;3.40;;;11.70;99.90;;;;;;5018220;28;20045;-61
2022/05/09 07:10:47;;;;;;;10.77;4.38;;;11.80;99.90;;;;;;5029233;28;20056;-59
2022/05/09 07:13:35;;;;;;;13.95;3.03;;;11.80;99.90;;;;;;5023810;28;20049;-59
2022/05/09 07:16:04;;;;;;;11.80;3.72;;;11.90;99.90;;;;;;5024701;28;20045;-59
2022/05/09 07:18:32;;;;;;;9.27;3.33;;;11.90;99.90;;;;;;5025602;28;20045;-59
2022/05/09 07:21:00;;;;;;;13.65;3.97;;;12.00;99.90;;;;;;5020900;28;20052;-59
2022/05/09 07:23:28;;;;;;;12.80;3.45;;;12.00;99.90;;;;;;5024378;28;20072;-60
2022/05/09 07:25:56;;;;;;;12.65;3.50;;;12.10;99.90;;;;;;5027199;28;20057;-59
2022/05/09 07:28:24;;;;;;;12.60;3.47;;;12.10;99.90;;;;;;5028967;28;20061;-59
2022/05/09 07:30:52;;;;;;;9.90;3.80;;;12.20;99.90;;;;;;5029522;28;20050;-60
2022/05/09 07:33:20;;;;;;;13.13;4.57;;;12.20;99.90;;;;;;5027697;28;20050;-61
2022/05/09 07:35:48;;;;;;;10.15;3.38;;;12.30;99.90;;;;;;5028023;28;20052;-59
2022/05/09 07:38:17;;;;;;;8.30;3.28;;;12.40;99.90;;;;;;5056071;28;20049;-60
2022/05/09 07:40:47;;;;;;;9.93;3.27;;;12.50;99.90;;;;;;5022994;28;20046;-60
2022/05/09 07:43:26;;;;;;;17.93;3.57;;;12.70;99.90;;;;;;5029529;28;20500;-59
2022/05/09 07:45:55;;;;;;;14.93;3.83;;;12.80;99.90;;;;;;5021442;28;20424;-60
2022/05/09 07:48:25;;;;;;;8.18;3.50;;;13.00;99.90;;;;;;5027879;28;20040;-59
2022/05/09 07:50:54;;;;;;;5.03;2.58;;;13.10;99.90;;;;;;5027228;28;20060;-61
2022/05/09 07:53:32;;;;;;;11.82;2.90;;;13.20;99.90;;;;;;5023403;28;20674;-64
2022/05/09 07:56:02;;;;;;;12.10;3.00;;;13.30;99.90;;;;;;5028300;28;20049;-64
2022/05/09 07:58:31;;;;;;;14.10;3.05;;;13.50;99.90;;;;;;5029551;28;20042;-62
2022/05/09 08:00:59;;;;;;;13.10;3.83;;;13.60;99.90;;;;;;5036031;28;20065;-60
2022/05/09 08:03:32;;;;;;;11.27;3.28;;;13.80;99.90;;;;;;5040080;28;20060;-61
2022/05/09 08:06:02;;;;;;;15.43;3.30;;;13.90;99.90;;;;;;5019974;28;20060;-60
2022/05/09 08:08:31;;;;;;;9.20;2.97;;;14.00;99.90;;;;;;5026402;28;20049;-61
2022/05/09 08:11:00;;;;;;;6.53;2.60;;;14.00;99.90;;;;;;5030111;28;20049;-62
2022/05/09 08:13:30;;;;;;;7.68;2.67;;;14.10;99.90;;;;;;5032540;28;20049;-61
2022/05/09 08:15:59;;;;;;;17.90;3.13;;;14.10;99.90;;;;;;5031102;28;20049;-61
2022/05/09 08:18:27;;;;;;;6.68;3.13;;;14.10;99.90;;;;;;5030887;28;20049;-58
2022/05/09 08:20:57;;;;;;;14.70;3.30;;;14.20;99.90;;;;;;5031298;28;20182;-59
2022/05/09 08:23:24;;;;;;;11.05;3.33;;;14.20;99.90;;;;;;5060707;28;20504;-59
2022/05/09 08:25:55;;;;;;;9.00;3.10;;;14.20;99.90;;;;;;5030785;28;20544;-59
2022/05/09 08:28:23;;;;;;;15.07;3.42;;;14.20;99.90;;;;;;5030132;28;20485;-60
2022/05/09 08:30:52;;;;;;;13.70;3.25;;;14.30;99.90;;;;;;5033373;28;20040;-59
2022/05/09 08:33:22;;;;;;;9.30;2.60;;;14.30;99.90;;;;;;5027202;28;20064;-59
2022/05/09 08:35:52;;;;;;;10.60;2.72;;;14.30;99.90;;;;;;5025895;28;20041;-59
2022/05/09 08:38:21;;;;;;;10.63;2.95;;;14.40;99.90;;;;;;5022214;28;20404;-59
2022/05/09 08:41:12;;;;;;;7.10;2.60;;;14.50;99.90;;;;;;5031457;28;20049;-59
2022/05/09 08:43:45;;;;;;;7.57;2.33;;;14.60;99.90;;;;;;5028831;28;20401;-65
2022/05/09 08:46:21;;;;;;;6.82;1.98;;;14.70;99.90;;;;;;5028546;28;20049;-65
2022/05/09 08:49:08;;;;;;;9.63;1.90;;;14.80;99.90;;;;;;5029800;28;20049;-64
2022/05/09 08:51:43;;;;;;;8.55;2.40;;;14.90;99.90;;;;;;5012188;28;20054;-65
2022/05/09 08:54:21;;;;;;;7.43;1.90;;;15.00;99.90;;;;;;5025122;28;20045;-60
2022/05/09 08:56:58;;;;;;;4.90;1.70;;;15.10;99.90;;;;;;5029125;28;20048;-61
2022/05/09 08:59:37;;;;;;;5.95;1.20;;;15.20;99.90;;;;;;5032142;28;20042;-63
2022/05/09 09:02:13;;;;;;;4.30;1.35;;;15.40;99.90;;;;;;5029402;28;20044;-63
2022/05/09 09:04:49;;;;;;;5.15;1.77;;;15.40;99.90;;;;;;5022050;28;20085;-65
2022/05/09 09:07:31;;;;;;;7.07;1.70;;;15.50;99.90;;;;;;5038167;28;20032;-65
2022/05/09 09:10:06;;;;;;;6.68;1.77;;;15.60;99.90;;;;;;5023610;28;20516;-65
2022/05/09 09:12:58;;;;;;;4.35;1.38;;;15.70;99.90;;;;;;5022179;28;20057;-65
2022/05/09 09:15:32;;;;;;;6.60;1.13;;;15.80;99.90;;;;;;5029860;28;20045;-61
2022/05/09 09:18:11;;;;;;;7.15;1.52;;;15.90;99.90;;;;;;5018064;28;20041;-61
2022/05/09 09:20:49;;;;;;;5.10;1.48;;;16.00;99.90;;;;;;5036637;28;20546;-61
2022/05/09 09:23:32;;;;;;;7.38;1.45;;;16.10;99.90;;;;;;5027478;28;20037;-61
2022/05/09 09:26:25;;;;;;;5.32;1.50;;;16.10;99.90;;;;;;5026151;28;20037;-62
2022/05/09 09:29:10;;;;;;;4.63;1.15;;;16.20;99.90;;;;;;5024691;28;20056;-64
2022/05/09 09:31:43;;;;;;;3.97;1.20;;;16.30;99.90;;;;;;5025411;28;20045;-61
2022/05/09 09:34:26;;;;;;;6.28;1.33;;;16.30;99.70;;;;;;5029817;28;20054;-63
2022/05/09 09:37:19;;;;;;;4.40;1.30;;;16.40;99.60;;;;;;5021392;28;20041;-64
2022/05/09 09:39:47;;;;;;;6.28;1.27;;;16.40;99.30;;;;;;5002297;28;20064;-61
2022/05/09 09:42:15;;;;;;;4.45;1.77;;;16.40;99.20;;;;;;5017675;28;20049;-61
2022/05/09 09:44:46;;;;;;;6.82;1.63;;;16.40;99.20;;;;;;5030269;28;20041;-62
2022/05/09 09:47:19;;;;;;;5.20;1.60;;;16.40;99.30;;;;;;5020087;28;20540;-62
2022/05/09 09:50:13;;;;;;;9.30;1.77;;;16.50;99.50;;;;;;5030649;28;20049;-65
2022/05/09 09:52:47;;;;;;;7.25;2.05;;;16.50;98.70;;;;;;5029319;28;20049;-61
2022/05/09 09:55:36;;;;;;;14.95;2.78;;;16.50;98.50;;;;;;5024639;28;20056;-61
2022/05/09 09:58:27;;;;;;;8.07;2.30;;;16.50;98.90;;;;;;5030547;28;20113;-61
2022/05/09 10:01:01;;;;;;;10.00;1.88;;;16.50;98.30;;;;;;5010976;28;20052;-61
2022/05/09 10:03:31;;;;;;;4.57;1.88;;;16.50;98.60;;;;;;5025029;28;20056;-61
2022/05/09 10:05:59;;;;;;;5.63;2.08;;;16.50;98.70;;;;;;5025128;28;20393;-61
2022/05/09 10:08:38;;;;;;;7.75;2.40;;;16.50;99.00;;;;;;5031187;28;20049;-61
2022/05/09 10:11:08;;;;;;;10.63;2.20;;;16.60;99.50;;;;;;5030114;28;20061;-62
2022/05/09 10:13:40;;;;;;;4.05;1.85;;;16.70;98.90;;;;;;5030218;28;20041;-61
2022/05/09 10:16:34;;;;;;;8.45;2.65;;;16.80;98.70;;;;;;5029621;28;20049;-60
2022/05/09 10:19:07;;;;;;;9.77;3.33;;;16.90;99.00;;;;;;5024830;28;20481;-60
2022/05/09 10:27:21;;;;;;;13.32;2.15;;;17.30;98.60;;;;;;5028454;28;20355;-61
2022/05/09 10:29:58;;;;;;;10.25;2.70;;;17.50;98.60;;;;;;5035257;28;20053;-60
2022/05/09 10:32:44;;;;;;;11.13;2.80;;;17.60;98.80;;;;;;5019697;28;20053;-60
2022/05/09 10:35:23;;;;;;;9.02;2.40;;;17.70;98.60;;;;;;5027253;28;20060;-67
2022/05/09 10:38:07;;;;;;;7.75;2.80;;;17.80;97.60;;;;;;5029451;28;20053;-66
2022/05/09 10:40:41;;;;;;;4.60;2.03;;;17.80;98.30;;;;;;5026417;28;20523;-66
2022/05/09 10:43:13;;;;;;;8.63;2.90;;;17.90;98.20;;;;;;5011363;28;20054;-66
2022/05/09 10:45:47;;;;;;;6.63;1.98;;;17.90;97.40;;;;;;5017350;28;20050;-66
2022/05/09 10:48:27;;;;;;;9.07;2.60;;;18.00;98.20;;;;;;5025869;28;20049;-67
2022/05/09 10:51:14;;;;;;;6.65;3.30;;;18.10;97.90;;;;;;5031890;28;20037;-67
2022/05/09 10:54:12;;;;;;;11.65;2.55;;;18.10;97.30;;;;;;5014097;28;20041;-63
2022/05/09 10:56:50;;;;;;;7.05;2.70;;;18.20;97.30;;;;;;5008822;28;20393;-68
2022/05/09 10:59:26;;;;;;;10.25;3.15;;;18.10;97.30;;;;;;5028050;28;20055;-66
2022/05/09 11:02:03;;;;;;;9.43;3.28;;;18.10;97.90;;;;;;5027827;28;20050;-65
2022/05/09 11:04:34;;;;;;;8.15;3.45;;;18.00;98.00;;;;;;5030295;28;20056;-67
2022/05/09 11:07:35;;;;;;;8.05;2.67;;;17.90;98.00;;;;;;5027477;28;20049;-66
2022/05/09 11:10:14;;;;;;;9.68;3.10;;;17.70;97.70;;;;;;5031614;28;20057;-66
2022/05/09 11:13:00;;;;;;;6.32;3.20;;;17.60;98.20;;;;;;5031179;28;20041;-66
2022/05/09 11:15:37;;;;;;;6.05;2.65;;;17.40;98.80;;;;;;5035262;28;20060;-66
2022/05/09 11:18:14;;;;;;;11.80;3.00;;;17.30;98.40;;;;;;5026368;28;20045;-64
2022/05/09 11:20:58;;;;;;;7.70;3.50;;;17.10;98.80;;;;;;5032887;28;20401;-65
2022/05/09 11:24:00;;;;;;;8.27;3.17;;;17.00;99.20;;;;;;5031422;28;20048;-65
2022/05/09 11:26:40;;;;;;;5.93;3.25;;;16.90;99.90;;;;;;5030991;28;20057;-66
2022/05/09 11:29:45;;;;;;;10.20;4.32;;;16.90;99.90;;;;;;5032009;28;20076;-66
2022/05/09 11:32:33;;;;;;;9.32;3.45;;;16.90;99.90;;;;;;5012275;28;20049;-66
2022/05/09 11:35:16;;;;;;;12.68;4.20;;;17.00;99.90;;;;;;5022128;28;20052;-66
2022/05/09 11:37:59;;;;;;;14.45;3.38;;;17.00;99.90;;;;;;5021668;28;20041;-68
2022/05/09 11:40:33;;;;;;;12.15;3.85;;;17.10;99.90;;;;;;5033093;28;20057;-68
2022/05/09 11:43:32;;;;;;;7.03;3.53;;;17.20;99.90;;;;;;5029647;28;20037;-62
2022/05/09 11:46:32;;;;;;;11.90;4.13;;;17.30;99.90;;;;;;5029630;28;20060;-62
2022/05/09 11:49:24;;;;;;;16.73;4.03;;;17.60;99.90;;;;;;5027131;28;20049;-61
2022/05/09 11:51:55;;;;;;;7.53;4.35;;;17.90;99.90;;;;;;5031415;28;20088;-61
2022/05/09 11:54:28;;;;;;;12.70;4.22;;;18.20;99.30;;;;;;5030720;28;20053;-62
2022/05/09 11:57:07;;;;;;;11.95;3.83;;;18.40;99.70;;;;;;5032792;28;20054;-63
2022/05/09 11:59:37;;;;;;;7.80;3.70;;;18.70;99.00;;;;;;5030687;28;20046;-62
2022/05/09 12:02:10;;;;;;;12.52;3.97;;;18.80;98.20;;;;;;5030588;28;20377;-63
2022/05/09 12:04:44;;;;;;;12.48;4.30;;;19.00;98.20;;;;;;5030277;28;20057;-62
2022/05/09 12:07:23;;;;;;;12.23;4.53;;;19.20;98.20;;;;;;5036864;28;20057;-63
2022/05/09 12:10:03;;;;;;;8.50;4.15;;;19.40;97.00;;;;;;5031257;28;20060;-61
2022/05/09 12:12:49;;;;;;;10.70;4.05;;;19.50;97.40;;;;;;5029973;28;20045;-61
2022/05/09 12:15:17;;;;;;;9.75;4.13;;;19.40;97.00;;;;;;5035533;28;20057;-61
2022/05/09 12:17:51;;;;;;;9.45;4.43;;;19.30;97.30;;;;;;5028377;28;20072;-61
2022/05/09 12:20:25;;;;;;;16.30;4.60;;;19.10;97.20;;;;;;5032709;28;20061;-61
2022/05/09 12:23:09;;;;;;;11.73;4.50;;;18.90;97.60;;;;;;5031551;28;20041;-62
2022/05/09 12:25:38;;;;;;;12.40;4.55;;;18.70;98.10;;;;;;5032723;28;20052;-61
2022/05/09 12:28:21;;;;;;;8.27;4.00;;;18.50;98.30;;;;;;5032096;28;20041;-62
2022/05/09 12:30:56;;;;;;;14.57;6.70;;;18.40;98.40;;;;;;5032248;28;20398;-60
2022/05/09 12:33:45;;;;;;;14.77;4.80;;;18.30;99.00;;;;;;5029349;28;20401;-60
2022/05/09 12:36:21;;;;;;;12.15;4.97;;;18.10;99.40;;;;;;5032008;28;20413;-60
2022/05/09 12:38:54;;;;;;;12.90;5.55;;;18.10;99.50;;;;;;5031389;28;20049;-60
2022/05/09 12:41:30;;;;;;;19.88;4.85;;;18.20;99.90;;;;;;5019771;28;20046;-60
2022/05/09 12:44:07;;;;;;;11.73;4.80;;;18.20;99.50;;;;;;5028335;28;20052;-60
2022/05/09 12:46:40;;;;;;;11.02;4.63;;;18.30;99.90;;;;;;5022946;28;20076;-62
2022/05/09 12:49:09;;;;;;;9.18;4.55;;;18.60;99.80;;;;;;5028022;28;20049;-62
2022/05/09 12:51:43;;;;;;;12.20;5.30;;;18.70;98.70;;;;;;5027095;28;20048;-62
2022/05/09 12:54:14;;;;;;;11.90;4.68;;;18.80;98.20;;;;;;5020863;28;20046;-64
2022/05/09 12:56:52;;;;;;;13.85;4.20;;;18.70;97.20;;;;;;5024912;28;20060;-65
2022/05/09 12:59:20;;;;;;;7.90;4.07;;;18.70;97.30;;;;;;5060077;28;20041;-61
2022/05/09 13:01:57;;;;;;;12.18;4.35;;;18.60;98.10;;;;;;5030610;28;20061;-62
2022/05/09 13:04:46;;;;;;;14.35;4.65;;;18.50;98.20;;;;;;5028854;28;20037;-63
2022/05/09 13:07:14;;;;;;;10.95;4.30;;;18.50;98.10;;;;;;5030291;28;20052;-61
2022/05/09 13:09:52;;;;;;;17.98;4.65;;;18.40;98.80;;;;;;5031476;28;20037;-65
2022/05/09 13:12:37;;;;;;;10.43;4.40;;;18.40;99.20;;;;;;5027873;28;20516;-62
2022/05/09 13:15:09;;;;;;;11.40;4.60;;;18.50;99.30;;;;;;5026047;28;20052;-61
2022/05/09 13:17:48;;;;;;;16.13;5.38;;;18.50;99.00;;;;;;5027060;28;20057;-67
2022/05/09 13:20:20;;;;;;;11.43;4.87;;;18.50;98.80;;;;;;5029529;28;20056;-62
2022/05/09 13:22:49;;;;;;;12.98;6.50;;;18.40;99.10;;;;;;5030944;28;20052;-66
2022/05/09 13:25:37;;;;;;;12.45;5.32;;;18.40;99.20;;;;;;5025838;28;20526;-64
2022/05/09 13:28:13;;;;;;;11.57;5.55;;;18.40;99.00;;;;;;5030288;28;20137;-66